Time;durP1;ratioP1;P1;durP2;ratioP2;P2;SDS_P1;SDS_P2;PMS_P1;PMS_P2;Temp;Humidity;BMP_temperature;BMP_pressure;BME280_temperature;BME280_humidity;BME280_pressure;Samples;Min_cycle;Max_cycle;Signal;HPM_P1;HPM_P2
2022/12/04 00:00:00;;;;;;;3.3;3.2;;;;;;;0.7;100.0;101570;;;;
2022/12/04 00:01:02;;;;;;;3.3;3.2;;;;;;;0.7;100.0;101570;;;;
2022/12/04 00:02:00;;;;;;;3.3;3.2;;;;;;;0.9;100.0;101580;;;;
2022/12/04 00:03:00;;;;;;;3.3;3.2;;;;;;;0.9;100.0;101580;;;;
2022/12/04 00:04:00;;;;;;;3.3;3.2;;;;;;;0.9;100.0;101570;;;;
2022/12/04 00:05:01;;;;;;;3.3;3.2;;;;;;;0.9;100.0;101570;;;;
2022/12/04 00:06:02;;;;;;;3.3;3.2;;;;;;;0.9;100.0;101570;;;;
2022/12/04 00:07:00;;;;;;;3.3;3.2;;;;;;;0.9;100.0;101570;;;;
2022/12/04 00:08:00;;;;;;;3.3;3.2;;;;;;;0.9;100.0;101570;;;;
2022/12/04 00:09:00;;;;;;;3.3;3.2;;;;;;;0.9;100.0;101570;;;;
2022/12/04 00:10:00;;;;;;;3.3;3.2;;;;;;;0.9;100.0;101570;;;;
2022/12/04 00:11:00;;;;;;;3.3;3.2;;;;;;;0.9;100.0;101570;;;;
2022/12/04 00:12:00;;;;;;;3.3;3.2;;;;;;;0.9;100.0;101570;;;;
2022/12/04 00:13:00;;;;;;;3.3;3.2;;;;;;;0.9;100.0;101570;;;;
2022/12/04 00:14:07;;;;;;;3.3;3.2;;;;;;;0.9;100.0;101570;;;;
2022/12/04 00:15:10;;;;;;;3.2;3.1;;;;;;;0.9;100.0;101570;;;;
2022/12/04 00:16:02;;;;;;;3.2;3.1;;;;;;;1.0;100.0;101570;;;;
2022/12/04 00:17:00;;;;;;;3.2;3.1;;;;;;;1.0;100.0;101570;;;;
2022/12/04 00:18:00;;;;;;;3.2;3.1;;;;;;;1.0;100.0;101570;;;;
2022/12/04 00:19:00;;;;;;;3.2;3.1;;;;;;;1.0;100.0;101570;;;;
2022/12/04 00:20:00;;;;;;;3.2;3.1;;;;;;;0.9;100.0;101570;;;;
2022/12/04 00:21:04;;;;;;;3.2;3.1;;;;;;;0.9;100.0;101570;;;;
2022/12/04 00:22:00;;;;;;;3.2;3.1;;;;;;;0.8;100.0;101570;;;;
2022/12/04 00:23:00;;;;;;;3.2;3.1;;;;;;;0.8;100.0;101570;;;;
2022/12/04 00:24:00;;;;;;;3.2;3.1;;;;;;;0.7;100.0;101570;;;;
2022/12/04 00:25:00;;;;;;;3.2;3.1;;;;;;;0.7;100.0;101570;;;;
2022/12/04 00:26:03;;;;;;;3.2;3.1;;;;;;;0.7;100.0;101570;;;;
2022/12/04 00:27:00;;;;;;;3.2;3.1;;;;;;;0.7;100.0;101570;;;;
2022/12/04 00:28:00;;;;;;;3.2;3.1;;;;;;;0.9;100.0;101570;;;;
2022/12/04 00:29:00;;;;;;;3.2;3.1;;;;;;;0.9;100.0;101570;;;;
2022/12/04 00:30:00;;;;;;;3.2;3.1;;;;;;;0.9;100.0;101560;;;;
2022/12/04 00:31:03;;;;;;;3.2;3.1;;;;;;;0.9;100.0;101560;;;;
2022/12/04 00:32:00;;;;;;;3.2;3.1;;;;;;;0.8;100.0;101570;;;;
2022/12/04 00:33:00;;;;;;;3.2;3.1;;;;;;;0.8;100.0;101570;;;;
2022/12/04 00:34:02;;;;;;;3.2;3.1;;;;;;;0.8;100.0;101560;;;;
2022/12/04 00:35:00;;;;;;;3.4;3.3;;;;;;;0.8;100.0;101560;;;;
2022/12/04 00:36:01;;;;;;;3.4;3.3;;;;;;;0.7;100.0;101560;;;;
2022/12/04 00:37:00;;;;;;;3.4;3.3;;;;;;;0.7;100.0;101560;;;;
2022/12/04 00:38:00;;;;;;;3.4;3.3;;;;;;;0.8;100.0;101560;;;;
2022/12/04 00:39:00;;;;;;;3.4;3.3;;;;;;;0.8;100.0;101560;;;;
2022/12/04 00:40:00;;;;;;;3.4;3.3;;;;;;;0.8;100.0;101560;;;;
2022/12/04 00:41:00;;;;;;;3.4;3.3;;;;;;;0.8;100.0;101560;;;;
2022/12/04 00:42:00;;;;;;;3.4;3.3;;;;;;;0.9;100.0;101560;;;;
2022/12/04 00:43:00;;;;;;;3.4;3.3;;;;;;;0.9;100.0;101560;;;;
2022/12/04 00:44:01;;;;;;;3.4;3.3;;;;;;;0.8;100.0;101550;;;;
2022/12/04 00:45:00;;;;;;;3.4;3.3;;;;;;;0.8;100.0;101550;;;;
2022/12/04 00:46:00;;;;;;;3.4;3.3;;;;;;;0.8;100.0;101550;;;;
2022/12/04 00:47:00;;;;;;;3.4;3.3;;;;;;;0.8;100.0;101550;;;;
2022/12/04 00:48:00;;;;;;;3.4;3.3;;;;;;;0.8;100.0;101550;;;;
2022/12/04 00:49:01;;;;;;;3.4;3.3;;;;;;;0.8;100.0;101550;;;;
2022/12/04 00:50:00;;;;;;;3.4;3.3;;;;;;;0.9;100.0;101550;;;;
2022/12/04 00:51:02;;;;;;;3.4;3.3;;;;;;;0.9;100.0;101550;;;;
2022/12/04 00:52:00;;;;;;;3.4;3.3;;;;;;;0.7;100.0;101550;;;;
2022/12/04 00:53:00;;;;;;;3.4;3.3;;;;;;;0.7;100.0;101550;;;;
2022/12/04 00:54:00;;;;;;;3.4;3.3;;;;;;;0.7;100.0;101550;;;;
2022/12/04 00:55:00;;;;;;;3.7;3.6;;;;;;;0.7;100.0;101550;;;;
2022/12/04 00:56:04;;;;;;;3.7;3.6;;;;;;;0.6;100.0;101550;;;;
2022/12/04 00:57:00;;;;;;;3.7;3.6;;;;;;;0.6;100.0;101550;;;;
2022/12/04 00:58:00;;;;;;;3.7;3.6;;;;;;;0.8;100.0;101550;;;;
2022/12/04 00:59:00;;;;;;;3.7;3.6;;;;;;;0.8;100.0;101550;;;;
2022/12/04 01:00:00;;;;;;;3.7;3.6;;;;;;;0.8;100.0;101550;;;;
2022/12/04 01:01:01;;;;;;;3.7;3.6;;;;;;;0.8;100.0;101550;;;;
2022/12/04 01:02:00;;;;;;;3.7;3.6;;;;;;;0.8;100.0;101550;;;;
2022/12/04 01:03:00;;;;;;;3.7;3.6;;;;;;;0.8;100.0;101550;;;;
2022/12/04 01:04:00;;;;;;;3.7;3.6;;;;;;;0.7;100.0;101550;;;;
2022/12/04 01:05:00;;;;;;;3.7;3.6;;;;;;;0.7;100.0;101550;;;;
2022/12/04 01:06:00;;;;;;;3.7;3.6;;;;;;;0.7;100.0;101550;;;;
2022/12/04 01:07:05;;;;;;;3.7;3.6;;;;;;;0.7;100.0;101550;;;;
2022/12/04 01:08:00;;;;;;;3.7;3.6;;;;;;;0.9;100.0;101560;;;;
2022/12/04 01:09:02;;;;;;;3.7;3.6;;;;;;;0.9;100.0;101560;;;;
2022/12/04 01:10:00;;;;;;;3.7;3.6;;;;;;;0.8;100.0;101560;;;;
2022/12/04 01:11:04;;;;;;;3.7;3.6;;;;;;;0.8;100.0;101560;;;;
2022/12/04 01:12:00;;;;;;;3.7;3.6;;;;;;;0.8;100.0;101560;;;;
2022/12/04 01:13:00;;;;;;;3.7;3.6;;;;;;;0.8;100.0;101560;;;;
2022/12/04 01:14:00;;;;;;;3.7;3.6;;;;;;;0.8;100.0;101560;;;;
2022/12/04 01:15:00;;;;;;;3.6;3.5;;;;;;;0.8;100.0;101560;;;;
2022/12/04 01:16:00;;;;;;;3.6;3.5;;;;;;;0.9;100.0;101560;;;;
2022/12/04 01:17:00;;;;;;;3.6;3.5;;;;;;;0.9;100.0;101560;;;;
2022/12/04 01:18:00;;;;;;;3.6;3.5;;;;;;;0.8;100.0;101570;;;;
2022/12/04 01:19:00;;;;;;;3.6;3.5;;;;;;;0.8;100.0;101570;;;;
2022/12/04 01:20:00;;;;;;;3.6;3.5;;;;;;;0.8;100.0;101560;;;;
2022/12/04 01:21:00;;;;;;;3.6;3.5;;;;;;;0.8;100.0;101560;;;;
2022/12/04 01:22:00;;;;;;;3.6;3.5;;;;;;;0.7;100.0;101560;;;;
2022/12/04 01:23:00;;;;;;;3.6;3.5;;;;;;;0.7;100.0;101560;;;;
2022/12/04 01:24:00;;;;;;;3.6;3.5;;;;;;;0.8;100.0;101570;;;;
2022/12/04 01:25:00;;;;;;;3.6;3.5;;;;;;;0.8;100.0;101570;;;;
2022/12/04 01:26:00;;;;;;;3.6;3.5;;;;;;;0.7;100.0;101570;;;;
2022/12/04 01:27:00;;;;;;;3.6;3.5;;;;;;;0.7;100.0;101570;;;;
2022/12/04 01:28:00;;;;;;;3.6;3.5;;;;;;;0.6;100.0;101560;;;;
2022/12/04 01:29:00;;;;;;;3.6;3.5;;;;;;;0.6;100.0;101560;;;;
2022/12/04 01:30:00;;;;;;;3.6;3.5;;;;;;;0.7;100.0;101560;;;;
2022/12/04 01:31:01;;;;;;;3.6;3.5;;;;;;;0.7;100.0;101560;;;;
2022/12/04 01:32:00;;;;;;;3.6;3.5;;;;;;;0.6;100.0;101560;;;;
2022/12/04 01:33:00;;;;;;;3.6;3.5;;;;;;;0.6;100.0;101560;;;;
2022/12/04 01:34:00;;;;;;;3.6;3.5;;;;;;;0.7;100.0;101560;;;;
2022/12/04 01:35:00;;;;;;;3.9;3.7;;;;;;;0.7;100.0;101560;;;;
2022/12/04 01:36:01;;;;;;;3.9;3.7;;;;;;;0.8;100.0;101560;;;;
2022/12/04 01:37:00;;;;;;;3.9;3.7;;;;;;;0.8;100.0;101560;;;;
2022/12/04 01:38:00;;;;;;;3.9;3.7;;;;;;;0.7;100.0;101560;;;;
2022/12/04 01:39:00;;;;;;;3.9;3.7;;;;;;;0.7;100.0;101560;;;;
2022/12/04 01:40:00;;;;;;;3.9;3.7;;;;;;;0.6;100.0;101560;;;;
2022/12/04 01:41:00;;;;;;;3.9;3.7;;;;;;;0.6;100.0;101560;;;;
2022/12/04 01:42:00;;;;;;;3.9;3.7;;;;;;;0.7;100.0;101560;;;;
2022/12/04 01:43:00;;;;;;;3.9;3.7;;;;;;;0.7;100.0;101560;;;;
2022/12/04 01:44:10;;;;;;;3.9;3.7;;;;;;;0.6;100.0;101560;;;;
2022/12/04 01:45:10;;;;;;;3.9;3.7;;;;;;;0.6;100.0;101560;;;;
2022/12/04 01:46:01;;;;;;;3.9;3.7;;;;;;;0.7;100.0;101560;;;;
2022/12/04 01:47:00;;;;;;;3.9;3.7;;;;;;;0.7;100.0;101560;;;;
2022/12/04 01:48:05;;;;;;;3.9;3.7;;;;;;;0.6;100.0;101560;;;;
2022/12/04 01:49:00;;;;;;;3.9;3.7;;;;;;;0.6;100.0;101560;;;;
2022/12/04 01:50:00;;;;;;;3.9;3.7;;;;;;;0.6;100.0;101560;;;;
2022/12/04 01:51:04;;;;;;;3.9;3.7;;;;;;;0.6;100.0;101560;;;;
2022/12/04 01:52:03;;;;;;;3.9;3.7;;;;;;;0.6;100.0;101550;;;;
2022/12/04 01:53:00;;;;;;;3.9;3.7;;;;;;;0.6;100.0;101550;;;;
2022/12/04 01:54:03;;;;;;;3.9;3.7;;;;;;;0.6;100.0;101550;;;;
2022/12/04 01:55:00;;;;;;;4.2;4.1;;;;;;;0.6;100.0;101550;;;;
2022/12/04 01:56:02;;;;;;;4.2;4.1;;;;;;;0.6;100.0;101550;;;;
2022/12/04 01:57:05;;;;;;;4.2;4.1;;;;;;;0.6;100.0;101550;;;;
2022/12/04 01:58:01;;;;;;;4.2;4.1;;;;;;;0.6;100.0;101550;;;;
2022/12/04 01:59:01;;;;;;;4.2;4.1;;;;;;;0.6;100.0;101550;;;;
2022/12/04 02:00:05;;;;;;;4.2;4.1;;;;;;;0.7;100.0;101550;;;;
2022/12/04 02:01:08;;;;;;;4.2;4.1;;;;;;;0.7;100.0;101550;;;;
2022/12/04 02:02:06;;;;;;;4.2;4.1;;;;;;;0.6;100.0;101550;;;;
2022/12/04 02:03:00;;;;;;;4.2;4.1;;;;;;;0.6;100.0;101550;;;;
2022/12/04 02:04:01;;;;;;;4.2;4.1;;;;;;;0.6;100.0;101550;;;;
2022/12/04 02:05:01;;;;;;;4.2;4.1;;;;;;;0.6;100.0;101550;;;;
2022/12/04 02:06:00;;;;;;;4.2;4.1;;;;;;;0.5;100.0;101550;;;;
2022/12/04 02:07:00;;;;;;;4.2;4.1;;;;;;;0.5;100.0;101550;;;;
2022/12/04 02:08:04;;;;;;;4.2;4.1;;;;;;;0.6;100.0;101540;;;;
2022/12/04 02:09:00;;;;;;;4.2;4.1;;;;;;;0.6;100.0;101540;;;;
2022/12/04 02:10:05;;;;;;;4.2;4.1;;;;;;;0.6;100.0;101540;;;;
2022/12/04 02:11:01;;;;;;;4.2;4.1;;;;;;;0.6;100.0;101540;;;;
2022/12/04 02:12:04;;;;;;;4.2;4.1;;;;;;;0.8;100.0;101550;;;;
2022/12/04 02:13:03;;;;;;;4.2;4.1;;;;;;;0.8;100.0;101550;;;;
2022/12/04 02:14:01;;;;;;;3.5;3.4;;;;;;;0.6;100.0;101550;;;;
2022/12/04 02:15:10;;;;;;;3.5;3.4;;;;;;;0.6;100.0;101550;;;;
2022/12/04 02:16:08;;;;;;;3.5;3.4;;;;;;;0.6;100.0;101550;;;;
2022/12/04 02:17:10;;;;;;;3.5;3.4;;;;;;;0.6;100.0;101550;;;;
2022/12/04 02:18:10;;;;;;;3.5;3.4;;;;;;;0.6;100.0;101550;;;;
2022/12/04 02:19:03;;;;;;;3.5;3.4;;;;;;;0.6;100.0;101550;;;;
2022/12/04 02:20:10;;;;;;;3.5;3.4;;;;;;;0.6;100.0;101550;;;;
2022/12/04 02:21:00;;;;;;;3.5;3.4;;;;;;;0.6;100.0;101550;;;;
2022/12/04 02:22:03;;;;;;;3.5;3.4;;;;;;;0.6;100.0;101550;;;;
2022/12/04 02:23:10;;;;;;;3.5;3.4;;;;;;;0.6;100.0;101550;;;;
2022/12/04 02:24:07;;;;;;;3.5;3.4;;;;;;;0.7;100.0;101550;;;;
2022/12/04 02:25:07;;;;;;;3.5;3.4;;;;;;;0.7;100.0;101550;;;;
2022/12/04 02:26:10;;;;;;;3.5;3.4;;;;;;;0.7;100.0;101550;;;;
2022/12/04 02:27:00;;;;;;;3.5;3.4;;;;;;;0.7;100.0;101550;;;;
2022/12/04 02:28:04;;;;;;;3.5;3.4;;;;;;;0.7;100.0;101550;;;;
2022/12/04 02:29:10;;;;;;;3.5;3.4;;;;;;;0.7;100.0;101550;;;;
2022/12/04 02:30:03;;;;;;;3.5;3.4;;;;;;;0.7;100.0;101550;;;;
2022/12/04 02:31:02;;;;;;;3.5;3.4;;;;;;;0.7;100.0;101550;;;;
2022/12/04 02:32:01;;;;;;;3.5;3.4;;;;;;;0.6;100.0;101550;;;;
2022/12/04 02:33:06;;;;;;;3.5;3.4;;;;;;;0.6;100.0;101550;;;;
2022/12/04 02:34:03;;;;;;;4.6;4.4;;;;;;;0.6;100.0;101540;;;;
2022/12/04 02:35:05;;;;;;;4.6;4.4;;;;;;;0.6;100.0;101540;;;;
2022/12/04 02:36:04;;;;;;;4.6;4.4;;;;;;;0.6;100.0;101540;;;;
2022/12/04 02:37:10;;;;;;;4.6;4.4;;;;;;;0.6;100.0;101540;;;;
2022/12/04 02:38:10;;;;;;;4.6;4.4;;;;;;;0.6;100.0;101540;;;;
2022/12/04 02:39:10;;;;;;;4.6;4.4;;;;;;;0.6;100.0;101540;;;;
2022/12/04 02:40:10;;;;;;;4.6;4.4;;;;;;;0.6;100.0;101550;;;;
2022/12/04 02:41:05;;;;;;;4.6;4.4;;;;;;;0.6;100.0;101550;;;;
2022/12/04 02:42:06;;;;;;;4.6;4.4;;;;;;;0.7;100.0;101550;;;;
2022/12/04 02:43:05;;;;;;;4.6;4.4;;;;;;;0.7;100.0;101550;;;;
2022/12/04 02:44:04;;;;;;;4.6;4.4;;;;;;;0.7;100.0;101550;;;;
2022/12/04 02:45:02;;;;;;;4.6;4.4;;;;;;;0.7;100.0;101550;;;;
2022/12/04 02:46:05;;;;;;;4.6;4.4;;;;;;;0.8;100.0;101540;;;;
2022/12/04 02:47:03;;;;;;;4.6;4.4;;;;;;;0.8;100.0;101540;;;;
2022/12/04 02:48:01;;;;;;;4.6;4.4;;;;;;;0.6;100.0;101550;;;;
2022/12/04 02:49:02;;;;;;;4.6;4.4;;;;;;;0.6;100.0;101550;;;;
2022/12/04 02:50:01;;;;;;;4.6;4.4;;;;;;;0.7;100.0;101550;;;;
2022/12/04 02:51:01;;;;;;;4.6;4.4;;;;;;;0.7;100.0;101550;;;;
2022/12/04 02:52:02;;;;;;;4.6;4.4;;;;;;;0.7;100.0;101540;;;;
2022/12/04 02:53:04;;;;;;;4.6;4.4;;;;;;;0.7;100.0;101540;;;;
2022/12/04 02:54:10;;;;;;;3.9;3.8;;;;;;;0.8;100.0;101540;;;;
2022/12/04 02:55:08;;;;;;;3.9;3.8;;;;;;;0.8;100.0;101540;;;;
2022/12/04 02:56:05;;;;;;;3.9;3.8;;;;;;;0.6;100.0;101540;;;;
2022/12/04 02:57:01;;;;;;;3.9;3.8;;;;;;;0.6;100.0;101540;;;;
2022/12/04 02:58:05;;;;;;;3.9;3.8;;;;;;;0.7;100.0;101540;;;;
2022/12/04 02:59:03;;;;;;;3.9;3.8;;;;;;;0.7;100.0;101540;;;;
2022/12/04 03:00:04;;;;;;;3.9;3.8;;;;;;;0.7;100.0;101540;;;;
2022/12/04 03:01:01;;;;;;;3.9;3.8;;;;;;;0.7;100.0;101540;;;;
2022/12/04 03:02:05;;;;;;;3.9;3.8;;;;;;;0.7;100.0;101530;;;;
2022/12/04 03:03:00;;;;;;;3.9;3.8;;;;;;;0.7;100.0;101530;;;;
2022/12/04 03:04:10;;;;;;;3.9;3.8;;;;;;;0.6;100.0;101530;;;;
2022/12/04 03:05:04;;;;;;;3.9;3.8;;;;;;;0.6;100.0;101530;;;;
2022/12/04 03:06:09;;;;;;;3.9;3.8;;;;;;;0.6;100.0;101530;;;;
2022/12/04 03:07:04;;;;;;;3.9;3.8;;;;;;;0.6;100.0;101530;;;;
2022/12/04 03:08:03;;;;;;;3.9;3.8;;;;;;;0.5;100.0;101530;;;;
2022/12/04 03:09:05;;;;;;;3.9;3.8;;;;;;;0.5;100.0;101530;;;;
2022/12/04 03:10:04;;;;;;;3.9;3.8;;;;;;;0.6;100.0;101530;;;;
2022/12/04 03:11:00;;;;;;;3.9;3.8;;;;;;;0.6;100.0;101530;;;;
2022/12/04 03:12:08;;;;;;;3.9;3.8;;;;;;;0.6;100.0;101530;;;;
2022/12/04 03:13:10;;;;;;;3.9;3.8;;;;;;;0.6;100.0;101530;;;;
2022/12/04 03:14:04;;;;;;;4.2;4.1;;;;;;;0.7;100.0;101520;;;;
2022/12/04 03:15:03;;;;;;;4.2;4.1;;;;;;;0.7;100.0;101520;;;;
2022/12/04 03:16:07;;;;;;;4.2;4.1;;;;;;;0.6;100.0;101520;;;;
2022/12/04 03:17:03;;;;;;;4.2;4.1;;;;;;;0.6;100.0;101520;;;;
2022/12/04 03:18:03;;;;;;;4.2;4.1;;;;;;;0.6;100.0;101520;;;;
2022/12/04 03:19:03;;;;;;;4.2;4.1;;;;;;;0.6;100.0;101520;;;;
2022/12/04 03:20:04;;;;;;;4.2;4.1;;;;;;;0.7;100.0;101530;;;;
2022/12/04 03:21:02;;;;;;;4.2;4.1;;;;;;;0.7;100.0;101530;;;;
2022/12/04 03:22:03;;;;;;;4.2;4.1;;;;;;;0.7;100.0;101530;;;;
2022/12/04 03:23:05;;;;;;;4.2;4.1;;;;;;;0.7;100.0;101530;;;;
2022/12/04 03:24:10;;;;;;;4.2;4.1;;;;;;;0.7;100.0;101530;;;;
2022/12/04 03:25:02;;;;;;;4.2;4.1;;;;;;;0.7;100.0;101530;;;;
2022/12/04 03:26:03;;;;;;;4.2;4.1;;;;;;;0.8;100.0;101530;;;;
2022/12/04 03:27:10;;;;;;;4.2;4.1;;;;;;;0.8;100.0;101530;;;;
2022/12/04 03:28:02;;;;;;;4.2;4.1;;;;;;;0.8;100.0;101530;;;;
2022/12/04 03:29:03;;;;;;;4.2;4.1;;;;;;;0.8;100.0;101530;;;;
2022/12/04 03:30:08;;;;;;;4.2;4.1;;;;;;;0.6;100.0;101520;;;;
2022/12/04 03:31:03;;;;;;;4.2;4.1;;;;;;;0.6;100.0;101520;;;;
2022/12/04 03:32:07;;;;;;;4.2;4.1;;;;;;;0.7;100.0;101530;;;;
2022/12/04 03:33:01;;;;;;;4.2;4.1;;;;;;;0.7;100.0;101530;;;;
2022/12/04 03:34:01;;;;;;;3.3;3.2;;;;;;;0.6;100.0;101530;;;;
2022/12/04 03:35:07;;;;;;;3.3;3.2;;;;;;;0.6;100.0;101530;;;;
2022/12/04 03:36:08;;;;;;;3.3;3.2;;;;;;;0.7;100.0;101530;;;;
2022/12/04 03:37:06;;;;;;;3.3;3.2;;;;;;;0.7;100.0;101530;;;;
2022/12/04 03:38:03;;;;;;;3.3;3.2;;;;;;;0.7;100.0;101530;;;;
2022/12/04 03:39:10;;;;;;;3.3;3.2;;;;;;;0.7;100.0;101530;;;;
2022/12/04 03:40:05;;;;;;;3.3;3.2;;;;;;;0.7;100.0;101530;;;;
2022/12/04 03:41:03;;;;;;;3.3;3.2;;;;;;;0.7;100.0;101530;;;;
2022/12/04 03:42:03;;;;;;;3.3;3.2;;;;;;;0.7;100.0;101520;;;;
2022/12/04 03:43:04;;;;;;;3.3;3.2;;;;;;;0.7;100.0;101520;;;;
2022/12/04 03:44:07;;;;;;;3.3;3.2;;;;;;;0.7;100.0;101520;;;;
2022/12/04 03:45:02;;;;;;;3.3;3.2;;;;;;;0.7;100.0;101520;;;;
2022/12/04 03:46:04;;;;;;;3.3;3.2;;;;;;;0.5;100.0;101520;;;;
2022/12/04 03:47:04;;;;;;;3.3;3.2;;;;;;;0.5;100.0;101520;;;;
2022/12/04 03:48:03;;;;;;;3.3;3.2;;;;;;;0.6;100.0;101520;;;;
2022/12/04 03:49:06;;;;;;;3.3;3.2;;;;;;;0.6;100.0;101520;;;;
2022/12/04 03:50:06;;;;;;;3.3;3.2;;;;;;;0.7;100.0;101520;;;;
2022/12/04 03:51:06;;;;;;;3.3;3.2;;;;;;;0.7;100.0;101520;;;;
2022/12/04 03:52:06;;;;;;;3.3;3.2;;;;;;;0.7;100.0;101520;;;;
2022/12/04 03:53:10;;;;;;;3.3;3.2;;;;;;;0.7;100.0;101520;;;;
2022/12/04 03:54:00;;;;;;;3.7;3.6;;;;;;;0.7;100.0;101520;;;;
2022/12/04 03:55:05;;;;;;;3.7;3.6;;;;;;;0.7;100.0;101520;;;;
2022/12/04 03:56:06;;;;;;;3.7;3.6;;;;;;;0.8;100.0;101520;;;;
2022/12/04 03:57:02;;;;;;;3.7;3.6;;;;;;;0.8;100.0;101520;;;;
2022/12/04 03:58:03;;;;;;;3.7;3.6;;;;;;;0.6;100.0;101520;;;;
2022/12/04 03:59:04;;;;;;;3.7;3.6;;;;;;;0.6;100.0;101520;;;;
2022/12/04 04:00:10;;;;;;;3.7;3.6;;;;;;;0.5;100.0;101520;;;;
2022/12/04 04:01:02;;;;;;;3.7;3.6;;;;;;;0.5;100.0;101520;;;;
2022/12/04 04:02:00;;;;;;;3.7;3.6;;;;;;;0.6;100.0;101520;;;;
2022/12/04 04:03:06;;;;;;;3.7;3.6;;;;;;;0.6;100.0;101520;;;;
2022/12/04 04:04:03;;;;;;;3.7;3.6;;;;;;;0.7;100.0;101520;;;;
2022/12/04 04:05:02;;;;;;;3.7;3.6;;;;;;;0.7;100.0;101520;;;;
2022/12/04 04:06:04;;;;;;;3.7;3.6;;;;;;;0.7;100.0;101520;;;;
2022/12/04 04:07:03;;;;;;;3.7;3.6;;;;;;;0.7;100.0;101520;;;;
2022/12/04 04:09:03;;;;;;;3.7;3.6;;;;;;;0.8;100.0;101520;;;;
2022/12/04 04:10:09;;;;;;;3.7;3.6;;;;;;;0.9;100.0;101520;;;;
2022/12/04 04:11:01;;;;;;;3.7;3.6;;;;;;;0.9;100.0;101520;;;;
2022/12/04 04:12:04;;;;;;;3.7;3.6;;;;;;;0.8;100.0;101520;;;;
2022/12/04 04:25:03;;;;;;;4.0;3.9;;;;;;;0.6;100.0;101520;;;;
2022/12/04 04:26:01;;;;;;;4.0;3.9;;;;;;;0.7;100.0;101520;;;;
2022/12/04 04:27:00;;;;;;;4.0;3.9;;;;;;;0.7;100.0;101520;;;;
2022/12/04 04:28:00;;;;;;;4.0;3.9;;;;;;;0.6;100.0;101520;;;;
2022/12/04 04:29:00;;;;;;;4.0;3.9;;;;;;;0.6;100.0;101520;;;;
2022/12/04 04:30:00;;;;;;;4.0;3.9;;;;;;;0.7;100.0;101520;;;;
2022/12/04 04:31:07;;;;;;;4.0;3.9;;;;;;;0.7;100.0;101520;;;;
2022/12/04 04:32:10;;;;;;;4.0;3.9;;;;;;;0.8;100.0;101510;;;;
2022/12/04 04:33:05;;;;;;;4.0;3.9;;;;;;;0.8;100.0;101510;;;;
2022/12/04 04:34:10;;;;;;;3.4;3.3;;;;;;;0.8;100.0;101520;;;;
2022/12/04 04:35:10;;;;;;;3.4;3.3;;;;;;;0.8;100.0;101520;;;;
2022/12/04 04:36:10;;;;;;;3.4;3.3;;;;;;;0.8;100.0;101510;;;;
2022/12/04 04:37:10;;;;;;;3.4;3.3;;;;;;;0.8;100.0;101510;;;;
2022/12/04 04:38:03;;;;;;;3.4;3.3;;;;;;;0.8;100.0;101510;;;;
2022/12/04 04:39:10;;;;;;;3.4;3.3;;;;;;;0.8;100.0;101510;;;;
2022/12/04 04:40:05;;;;;;;3.4;3.3;;;;;;;0.7;100.0;101520;;;;
2022/12/04 04:41:09;;;;;;;3.4;3.3;;;;;;;0.7;100.0;101520;;;;
2022/12/04 04:42:06;;;;;;;3.4;3.3;;;;;;;0.7;100.0;101510;;;;
2022/12/04 04:43:08;;;;;;;3.4;3.3;;;;;;;0.7;100.0;101510;;;;
2022/12/04 04:44:06;;;;;;;3.4;3.3;;;;;;;0.7;100.0;101510;;;;
2022/12/04 04:45:00;;;;;;;3.4;3.3;;;;;;;0.7;100.0;101510;;;;
2022/12/04 04:46:04;;;;;;;3.4;3.3;;;;;;;0.6;100.0;101510;;;;
2022/12/04 04:47:02;;;;;;;3.4;3.3;;;;;;;0.6;100.0;101510;;;;
2022/12/04 04:48:05;;;;;;;3.4;3.3;;;;;;;0.7;100.0;101520;;;;
2022/12/04 04:49:02;;;;;;;3.4;3.3;;;;;;;0.7;100.0;101520;;;;
2022/12/04 04:50:01;;;;;;;3.4;3.3;;;;;;;0.6;100.0;101520;;;;
2022/12/04 04:51:01;;;;;;;3.4;3.3;;;;;;;0.6;100.0;101520;;;;
2022/12/04 04:52:01;;;;;;;3.4;3.3;;;;;;;0.7;100.0;101520;;;;
2022/12/04 04:53:04;;;;;;;3.4;3.3;;;;;;;0.7;100.0;101520;;;;
2022/12/04 04:54:03;;;;;;;3.4;3.3;;;;;;;0.7;100.0;101530;;;;
2022/12/04 04:55:01;;;;;;;3.4;3.3;;;;;;;0.7;100.0;101530;;;;
2022/12/04 04:56:00;;;;;;;3.4;3.3;;;;;;;0.6;100.0;101520;;;;
2022/12/04 04:57:00;;;;;;;3.4;3.3;;;;;;;0.6;100.0;101520;;;;
2022/12/04 04:58:09;;;;;;;3.4;3.3;;;;;;;0.7;100.0;101520;;;;
2022/12/04 04:59:00;;;;;;;3.4;3.3;;;;;;;0.7;100.0;101520;;;;
2022/12/04 05:00:01;;;;;;;3.4;3.3;;;;;;;0.7;100.0;101520;;;;
2022/12/04 05:01:02;;;;;;;3.4;3.3;;;;;;;0.7;100.0;101520;;;;
2022/12/04 05:02:00;;;;;;;3.4;3.3;;;;;;;0.7;100.0;101520;;;;
2022/12/04 05:03:00;;;;;;;3.4;3.3;;;;;;;0.7;100.0;101520;;;;
2022/12/04 05:04:01;;;;;;;3.4;3.3;;;;;;;0.5;100.0;101520;;;;
2022/12/04 05:05:00;;;;;;;3.4;3.3;;;;;;;0.5;100.0;101520;;;;
2022/12/04 05:06:00;;;;;;;3.4;3.3;;;;;;;0.6;100.0;101520;;;;
2022/12/04 05:07:00;;;;;;;3.4;3.3;;;;;;;0.6;100.0;101520;;;;
2022/12/04 05:08:00;;;;;;;3.4;3.3;;;;;;;0.6;100.0;101520;;;;
2022/12/04 05:09:00;;;;;;;3.4;3.3;;;;;;;0.6;100.0;101520;;;;
2022/12/04 05:10:00;;;;;;;3.4;3.3;;;;;;;0.6;100.0;101520;;;;
2022/12/04 05:11:00;;;;;;;3.4;3.3;;;;;;;0.6;100.0;101520;;;;
2022/12/04 05:12:00;;;;;;;3.4;3.3;;;;;;;0.8;100.0;101520;;;;
2022/12/04 05:13:00;;;;;;;3.4;3.3;;;;;;;0.8;100.0;101520;;;;
2022/12/04 05:14:00;;;;;;;3.7;3.6;;;;;;;0.8;100.0;101520;;;;
2022/12/04 05:15:00;;;;;;;3.7;3.6;;;;;;;0.8;100.0;101520;;;;
2022/12/04 05:16:04;;;;;;;3.7;3.6;;;;;;;0.8;100.0;101520;;;;
2022/12/04 05:17:02;;;;;;;3.7;3.6;;;;;;;0.8;100.0;101520;;;;
2022/12/04 05:18:00;;;;;;;3.7;3.6;;;;;;;0.8;100.0;101520;;;;
2022/12/04 05:20:00;;;;;;;3.7;3.6;;;;;;;0.8;100.0;101520;;;;
2022/12/04 05:21:08;;;;;;;3.7;3.6;;;;;;;0.8;100.0;101520;;;;
2022/12/04 05:22:00;;;;;;;3.7;3.6;;;;;;;0.8;100.0;101520;;;;
2022/12/04 05:23:00;;;;;;;3.7;3.6;;;;;;;0.8;100.0;101520;;;;
2022/12/04 05:24:00;;;;;;;3.7;3.6;;;;;;;0.6;100.0;101520;;;;
2022/12/04 05:25:01;;;;;;;3.7;3.6;;;;;;;0.6;100.0;101520;;;;
2022/12/04 05:26:01;;;;;;;3.7;3.6;;;;;;;0.7;100.0;101530;;;;
2022/12/04 05:27:00;;;;;;;3.7;3.6;;;;;;;0.7;100.0;101530;;;;
2022/12/04 05:28:00;;;;;;;3.7;3.6;;;;;;;0.8;100.0;101530;;;;
2022/12/04 05:29:00;;;;;;;3.7;3.6;;;;;;;0.8;100.0;101530;;;;
2022/12/04 05:30:00;;;;;;;3.7;3.6;;;;;;;0.8;100.0;101530;;;;
2022/12/04 05:31:01;;;;;;;3.7;3.6;;;;;;;0.8;100.0;101530;;;;
2022/12/04 05:32:00;;;;;;;3.7;3.6;;;;;;;0.8;100.0;101530;;;;
2022/12/04 05:33:00;;;;;;;3.7;3.6;;;;;;;0.8;100.0;101530;;;;
2022/12/04 05:34:00;;;;;;;4.2;4.1;;;;;;;0.8;100.0;101530;;;;
2022/12/04 05:35:00;;;;;;;4.2;4.1;;;;;;;0.8;100.0;101530;;;;
2022/12/04 05:36:01;;;;;;;4.2;4.1;;;;;;;0.9;100.0;101530;;;;
2022/12/04 05:37:00;;;;;;;4.2;4.1;;;;;;;0.9;100.0;101530;;;;
2022/12/04 05:38:00;;;;;;;4.2;4.1;;;;;;;0.7;100.0;101520;;;;
2022/12/04 05:39:00;;;;;;;4.2;4.1;;;;;;;0.7;100.0;101520;;;;
2022/12/04 05:40:00;;;;;;;4.2;4.1;;;;;;;0.8;100.0;101530;;;;
2022/12/04 05:41:01;;;;;;;4.2;4.1;;;;;;;0.8;100.0;101530;;;;
2022/12/04 05:42:00;;;;;;;4.2;4.1;;;;;;;0.8;100.0;101520;;;;
2022/12/04 05:43:00;;;;;;;4.2;4.1;;;;;;;0.8;100.0;101520;;;;
2022/12/04 05:44:00;;;;;;;4.2;4.1;;;;;;;0.7;100.0;101520;;;;
2022/12/04 05:45:00;;;;;;;4.2;4.1;;;;;;;0.7;100.0;101520;;;;
2022/12/04 05:46:01;;;;;;;4.2;4.1;;;;;;;0.8;100.0;101520;;;;
2022/12/04 05:47:00;;;;;;;4.2;4.1;;;;;;;0.8;100.0;101520;;;;
2022/12/04 05:48:00;;;;;;;4.2;4.1;;;;;;;0.8;100.0;101520;;;;
2022/12/04 05:49:00;;;;;;;4.2;4.1;;;;;;;0.8;100.0;101520;;;;
2022/12/04 05:50:00;;;;;;;4.2;4.1;;;;;;;0.8;100.0;101520;;;;
2022/12/04 05:51:03;;;;;;;4.2;4.1;;;;;;;0.8;100.0;101520;;;;
2022/12/04 05:52:02;;;;;;;4.2;4.1;;;;;;;0.8;100.0;101520;;;;
2022/12/04 05:53:00;;;;;;;3.6;3.4;;;;;;;0.8;100.0;101520;;;;
2022/12/04 05:54:00;;;;;;;3.6;3.4;;;;;;;0.9;100.0;101520;;;;
2022/12/04 05:55:00;;;;;;;3.6;3.4;;;;;;;0.9;100.0;101520;;;;
2022/12/04 05:56:01;;;;;;;3.6;3.4;;;;;;;0.9;100.0;101520;;;;
2022/12/04 05:57:00;;;;;;;3.6;3.4;;;;;;;0.9;100.0;101520;;;;
2022/12/04 05:58:00;;;;;;;3.6;3.4;;;;;;;0.8;100.0;101510;;;;
2022/12/04 05:59:00;;;;;;;3.6;3.4;;;;;;;0.8;100.0;101510;;;;
2022/12/04 06:00:00;;;;;;;3.6;3.4;;;;;;;0.7;100.0;101520;;;;
2022/12/04 06:01:06;;;;;;;3.6;3.4;;;;;;;0.7;100.0;101520;;;;
2022/12/04 06:02:00;;;;;;;3.6;3.4;;;;;;;0.8;100.0;101510;;;;
2022/12/04 06:03:00;;;;;;;3.6;3.4;;;;;;;0.8;100.0;101510;;;;
2022/12/04 06:04:00;;;;;;;3.6;3.4;;;;;;;0.8;100.0;101510;;;;
2022/12/04 06:05:00;;;;;;;3.6;3.4;;;;;;;0.8;100.0;101510;;;;
2022/12/04 06:06:00;;;;;;;3.6;3.4;;;;;;;0.9;100.0;101510;;;;
2022/12/04 06:07:00;;;;;;;3.6;3.4;;;;;;;0.9;100.0;101510;;;;
2022/12/04 06:08:00;;;;;;;3.6;3.4;;;;;;;0.9;100.0;101510;;;;
2022/12/04 06:09:00;;;;;;;3.6;3.4;;;;;;;0.9;100.0;101510;;;;
2022/12/04 06:10:00;;;;;;;3.6;3.4;;;;;;;0.8;100.0;101510;;;;
2022/12/04 06:11:00;;;;;;;3.6;3.4;;;;;;;0.8;100.0;101510;;;;
2022/12/04 06:12:00;;;;;;;3.6;3.4;;;;;;;0.8;100.0;101510;;;;
2022/12/04 06:13:00;;;;;;;3.3;3.2;;;;;;;0.8;100.0;101510;;;;
2022/12/04 06:14:01;;;;;;;3.3;3.2;;;;;;;0.8;100.0;101500;;;;
2022/12/04 06:15:00;;;;;;;3.3;3.2;;;;;;;0.8;100.0;101500;;;;
2022/12/04 06:16:00;;;;;;;3.3;3.2;;;;;;;0.9;100.0;101500;;;;
2022/12/04 06:17:00;;;;;;;3.3;3.2;;;;;;;0.9;100.0;101500;;;;
2022/12/04 06:18:00;;;;;;;3.3;3.2;;;;;;;0.9;100.0;101500;;;;
2022/12/04 06:19:01;;;;;;;3.3;3.2;;;;;;;0.9;100.0;101500;;;;
2022/12/04 06:20:01;;;;;;;3.3;3.2;;;;;;;0.8;100.0;101510;;;;
2022/12/04 06:21:00;;;;;;;3.3;3.2;;;;;;;0.8;100.0;101510;;;;
2022/12/04 06:22:00;;;;;;;3.3;3.2;;;;;;;0.8;100.0;101510;;;;
2022/12/04 06:23:00;;;;;;;3.3;3.2;;;;;;;0.8;100.0;101510;;;;
2022/12/04 06:24:00;;;;;;;3.3;3.2;;;;;;;0.6;100.0;101500;;;;
2022/12/04 06:25:00;;;;;;;3.3;3.2;;;;;;;0.6;100.0;101500;;;;
2022/12/04 06:26:07;;;;;;;3.3;3.2;;;;;;;0.6;100.0;101500;;;;
2022/12/04 06:27:10;;;;;;;3.3;3.2;;;;;;;0.6;100.0;101500;;;;
2022/12/04 06:28:00;;;;;;;3.3;3.2;;;;;;;0.7;100.0;101500;;;;
2022/12/04 06:29:00;;;;;;;3.3;3.2;;;;;;;0.7;100.0;101500;;;;
2022/12/04 06:30:00;;;;;;;3.3;3.2;;;;;;;0.7;100.0;101510;;;;
2022/12/04 06:31:01;;;;;;;3.3;3.2;;;;;;;0.7;100.0;101510;;;;
2022/12/04 06:32:00;;;;;;;3.3;3.2;;;;;;;0.7;100.0;101510;;;;
2022/12/04 06:33:00;;;;;;;3.6;3.5;;;;;;;0.7;100.0;101510;;;;
2022/12/04 06:34:00;;;;;;;3.6;3.5;;;;;;;0.6;100.0;101500;;;;
2022/12/04 06:35:00;;;;;;;3.6;3.5;;;;;;;0.6;100.0;101500;;;;
2022/12/04 06:36:02;;;;;;;3.6;3.5;;;;;;;0.6;100.0;101510;;;;
2022/12/04 06:37:00;;;;;;;3.6;3.5;;;;;;;0.6;100.0;101510;;;;
2022/12/04 06:38:00;;;;;;;3.6;3.5;;;;;;;0.7;100.0;101510;;;;
2022/12/04 06:39:00;;;;;;;3.6;3.5;;;;;;;0.7;100.0;101510;;;;
2022/12/04 06:40:00;;;;;;;3.6;3.5;;;;;;;0.8;100.0;101510;;;;
2022/12/04 06:41:08;;;;;;;3.6;3.5;;;;;;;0.8;100.0;101510;;;;
2022/12/04 06:42:00;;;;;;;3.6;3.5;;;;;;;0.8;100.0;101510;;;;
2022/12/04 06:43:00;;;;;;;3.6;3.5;;;;;;;0.8;100.0;101510;;;;